Time;durP1;ratioP1;P1;durP2;ratioP2;P2;SDS_P1;SDS_P2;PMS_P1;PMS_P2;Temp;Humidity;BMP_temperature;BMP_pressure;BME280_temperature;BME280_humidity;BME280_pressure;Samples;Min_cycle;Max_cycle;Signal;HPM_P1;HPM_P2
2021/04/28 00:01:53;;;;;;;18.43;14.40;;;;;;;10.40;100.00;100649.70;1877040;75;26190;-73
2021/04/28 00:04:23;;;;;;;19.73;14.80;;;;;;;10.22;100.00;100654.02;1877123;76;26644;-73
2021/04/28 00:06:53;;;;;;;15.50;12.73;;;;;;;10.17;100.00;100640.72;1877159;76;26263;-73
2021/04/28 00:09:23;;;;;;;17.63;13.73;;;;;;;10.18;100.00;100643.22;1877061;75;26241;-73
2021/04/28 00:11:53;;;;;;;19.63;14.60;;;;;;;10.04;100.00;100641.59;1877178;76;26213;-73
2021/04/28 00:14:23;;;;;;;16.40;13.43;;;;;;;10.15;100.00;100639.61;1877313;76;26341;-73
2021/04/28 00:16:53;;;;;;;19.83;13.83;;;;;;;10.26;100.00;100633.44;1877108;76;26198;-73
2021/04/28 00:19:23;;;;;;;18.43;13.73;;;;;;;10.36;100.00;100636.95;1877017;76;26674;-72
2021/04/28 00:21:53;;;;;;;17.83;13.93;;;;;;;10.32;100.00;100637.82;1877141;76;26192;-72
2021/04/28 00:24:23;;;;;;;17.67;13.97;;;;;;;10.44;100.00;100636.33;1877266;76;26275;-73
2021/04/28 00:26:53;;;;;;;21.33;14.27;;;;;;;10.36;100.00;100634.18;1877080;76;26267;-72
2021/04/28 00:29:23;;;;;;;18.17;14.10;;;;;;;10.34;100.00;100632.27;1877154;76;26189;-73
2021/04/28 00:31:53;;;;;;;20.27;13.60;;;;;;;10.44;100.00;100625.23;1877034;76;26205;-72
2021/04/28 00:34:23;;;;;;;18.67;13.33;;;;;;;10.41;100.00;100620.82;1877197;76;26205;-72
2021/04/28 00:36:53;;;;;;;18.33;14.63;;;;;;;10.23;100.00;100630.66;1877173;76;26617;-72
2021/04/28 00:39:22;;;;;;;18.13;14.67;;;;;;;10.18;100.00;100622.40;1877106;76;26260;-72
2021/04/28 00:41:53;;;;;;;20.57;14.60;;;;;;;10.09;100.00;100618.54;1877131;76;26645;-72
2021/04/28 00:44:23;;;;;;;21.47;14.97;;;;;;;10.01;100.00;100617.77;1877235;76;26255;-72
2021/04/28 00:46:53;;;;;;;19.27;14.63;;;;;;;9.83;100.00;100615.09;1877217;76;26209;-72
2021/04/28 00:49:22;;;;;;;17.13;14.20;;;;;;;9.81;100.00;100614.53;1877233;76;26344;-72
2021/04/28 00:51:52;;;;;;;20.73;15.13;;;;;;;9.85;100.00;100614.23;1877146;76;26213;-72
2021/04/28 00:54:22;;;;;;;19.87;14.87;;;;;;;9.89;100.00;100612.54;1877048;76;26641;-73
2021/04/28 00:56:55;;;;;;;19.97;15.27;;;;;;;9.94;100.00;100608.36;1877215;76;26199;-72
2021/04/28 00:59:26;;;;;;;20.80;15.87;;;;;;;9.89;100.00;100598.67;1877073;76;26207;-73
2021/04/28 01:01:56;;;;;;;22.10;16.90;;;;;;;9.88;100.00;100601.75;1876987;75;26361;-73
2021/04/28 01:04:27;;;;;;;21.10;15.90;;;;;;;9.89;100.00;100590.34;1877231;76;26628;-72
2021/04/28 01:06:59;;;;;;;22.73;16.20;;;;;;;9.89;100.00;100585.35;1877063;76;26276;-73
2021/04/28 01:09:29;;;;;;;19.53;15.50;;;;;;;9.85;100.00;100578.17;1876911;75;26256;-73
2021/04/28 01:11:59;;;;;;;21.73;16.53;;;;;;;9.91;100.00;100574.26;1877187;76;26255;-73
2021/04/28 01:14:30;;;;;;;21.40;16.77;;;;;;;9.87;100.00;100567.62;1877217;76;26248;-72
2021/04/28 01:17:02;;;;;;;19.70;15.07;;;;;;;9.91;100.00;100559.55;1877096;76;26229;-72
2021/04/28 01:19:36;;;;;;;22.40;16.30;;;;;;;9.87;100.00;100558.47;1877028;76;26283;-73
2021/04/28 01:22:06;;;;;;;21.53;16.60;;;;;;;9.85;100.00;100555.97;1876997;76;26197;-73
2021/04/28 01:24:37;;;;;;;24.17;17.17;;;;;;;9.90;100.00;100547.62;1877142;76;26279;-73
2021/04/28 01:27:11;;;;;;;21.77;16.57;;;;;;;9.90;100.00;100539.30;1877164;76;26618;-73
2021/04/28 01:29:42;;;;;;;23.13;16.17;;;;;;;9.97;100.00;100532.02;1877149;76;26185;-73
2021/04/28 01:32:15;;;;;;;22.87;17.30;;;;;;;10.16;100.00;100521.09;1876956;76;26198;-72
2021/04/28 01:34:47;;;;;;;21.27;16.77;;;;;;;10.23;100.00;100524.36;1877127;76;26289;-72
2021/04/28 01:37:18;;;;;;;23.20;15.63;;;;;;;10.20;100.00;100527.16;1877236;76;26267;-72
2021/04/28 01:39:51;;;;;;;23.83;17.20;;;;;;;10.26;100.00;100532.13;1877182;76;26268;-72
2021/04/28 01:42:22;;;;;;;20.27;16.00;;;;;;;10.28;100.00;100527.92;1877255;76;26287;-72
2021/04/28 01:44:55;;;;;;;24.40;17.17;;;;;;;10.19;100.00;100526.89;1877130;76;26638;-72
2021/04/28 01:47:26;;;;;;;23.27;16.47;;;;;;;10.16;100.00;100526.09;1877250;76;26217;-71
2021/04/28 01:49:56;;;;;;;21.87;15.73;;;;;;;10.01;100.00;100533.13;1876956;76;26617;-71
2021/04/28 01:52:27;;;;;;;22.83;16.00;;;;;;;9.83;100.00;100539.36;1877038;76;26218;-71
2021/04/28 01:54:57;;;;;;;24.87;17.13;;;;;;;9.79;100.00;100538.28;1877084;76;26210;-71
2021/04/28 01:57:28;;;;;;;22.03;17.73;;;;;;;9.95;100.00;100553.14;1877145;76;26699;-71
2021/04/28 02:00:00;;;;;;;25.57;17.00;;;;;;;10.03;100.00;100548.36;1877087;76;26202;-71
2021/04/28 02:02:30;;;;;;;22.23;17.23;;;;;;;9.79;100.00;100547.98;1877117;75;26330;-71
2021/04/28 02:05:00;;;;;;;23.97;16.97;;;;;;;9.73;100.00;100549.95;1877085;76;26287;-71
2021/04/28 02:07:30;;;;;;;22.10;17.17;;;;;;;9.61;100.00;100546.71;1877016;76;26194;-72
2021/04/28 02:10:01;;;;;;;24.17;17.83;;;;;;;9.46;100.00;100550.38;1876897;75;26717;-72
2021/04/28 02:12:31;;;;;;;25.57;18.20;;;;;;;9.57;100.00;100552.55;1877034;76;26248;-71
2021/04/28 02:15:02;;;;;;;24.03;17.50;;;;;;;9.56;100.00;100554.50;1877073;76;26233;-71
2021/04/28 02:17:34;;;;;;;24.33;17.53;;;;;;;9.44;100.00;100555.95;1876935;76;26645;-71
2021/04/28 02:20:09;;;;;;;23.47;17.47;;;;;;;9.42;100.00;100561.77;1876790;76;26702;-72
2021/04/28 02:22:40;;;;;;;23.17;16.73;;;;;;;9.75;100.00;100563.00;1876992;76;26197;-71
2021/04/28 02:25:12;;;;;;;27.17;17.47;;;;;;;9.60;100.00;100556.97;1877253;76;26708;-71
2021/04/28 02:27:44;;;;;;;23.00;17.00;;;;;;;9.57;100.00;100558.94;1877143;76;26241;-72
2021/04/28 02:30:17;;;;;;;23.53;17.00;;;;;;;9.49;100.00;100554.55;1876935;76;26194;-71
2021/04/28 02:32:48;;;;;;;20.67;15.60;;;;;;;9.46;100.00;100553.16;1877057;76;26259;-71
2021/04/28 02:35:19;;;;;;;25.07;16.83;;;;;;;9.52;100.00;100552.02;1876990;76;26201;-71
2021/04/28 02:37:52;;;;;;;23.97;15.50;;;;;;;9.48;100.00;100552.33;1877140;76;26277;-71
2021/04/28 02:40:24;;;;;;;22.57;15.93;;;;;;;9.53;100.00;100553.69;1876948;76;26747;-71
2021/04/28 02:42:54;;;;;;;23.50;16.07;;;;;;;9.57;100.00;100555.33;1876970;76;26622;-72
2021/04/28 02:45:25;;;;;;;21.13;16.33;;;;;;;9.55;100.00;100556.98;1876970;76;26625;-72
2021/04/28 02:47:56;;;;;;;22.07;15.70;;;;;;;9.30;100.00;100553.52;1877058;76;26221;-71
2021/04/28 02:50:28;;;;;;;23.60;16.00;;;;;;;9.35;100.00;100557.10;1877068;76;26205;-71
2021/04/28 02:53:00;;;;;;;21.33;16.27;;;;;;;9.35;100.00;100556.27;1877001;76;26706;-71
2021/04/28 02:55:30;;;;;;;20.27;16.50;;;;;;;9.18;100.00;100553.84;1877139;76;26280;-71
2021/04/28 02:58:01;;;;;;;22.17;16.97;;;;;;;9.18;100.00;100546.09;1876940;76;26664;-71
2021/04/28 03:00:32;;;;;;;23.93;16.40;;;;;;;9.02;100.00;100550.31;1877062;76;26198;-72
2021/04/28 03:03:04;;;;;;;22.50;16.93;;;;;;;8.85;100.00;100545.66;1877002;75;26342;-71
2021/04/28 03:05:34;;;;;;;23.57;17.17;;;;;;;8.78;100.00;100545.11;1877054;76;26271;-71
2021/04/28 03:08:04;;;;;;;23.60;16.50;;;;;;;8.70;100.00;100542.91;1876993;76;26348;-71
2021/04/28 03:10:34;;;;;;;22.67;16.90;;;;;;;8.56;100.00;100541.83;1877024;76;26410;-71
2021/04/28 03:13:04;;;;;;;21.80;17.63;;;;;;;8.51;100.00;100537.70;1876897;76;26218;-72
2021/04/28 03:15:34;;;;;;;22.17;17.90;;;;;;;8.36;100.00;100535.77;1877027;76;26251;-71
2021/04/28 03:18:04;;;;;;;21.97;17.00;;;;;;;8.38;100.00;100532.19;1877067;76;26201;-72
2021/04/28 03:20:36;;;;;;;24.20;18.50;;;;;;;8.26;100.00;100531.59;1876941;76;26182;-72
2021/04/28 03:23:07;;;;;;;21.37;17.33;;;;;;;8.07;100.00;100527.19;1877020;76;26256;-71
2021/04/28 03:25:37;;;;;;;22.60;17.57;;;;;;;8.15;100.00;100532.71;1876934;76;26722;-71
2021/04/28 03:28:07;;;;;;;23.50;18.37;;;;;;;8.14;100.00;100533.27;1877032;76;26178;-71
2021/04/28 03:30:37;;;;;;;23.90;17.60;;;;;;;8.21;100.00;100528.27;1877094;76;26271;-71
2021/04/28 03:33:07;;;;;;;24.03;17.43;;;;;;;8.22;100.00;100531.31;1877002;76;26283;-71
2021/04/28 03:35:37;;;;;;;23.27;17.20;;;;;;;8.31;100.00;100533.01;1877102;76;26249;-71
2021/04/28 03:38:07;;;;;;;22.20;17.03;;;;;;;8.30;100.00;100536.07;1877029;76;26621;-71
2021/04/28 03:40:37;;;;;;;23.20;17.10;;;;;;;8.24;100.00;100534.66;1876969;76;26621;-71
2021/04/28 03:43:07;;;;;;;22.20;16.77;;;;;;;8.31;100.00;100541.86;1876982;76;26197;-71
2021/04/28 03:45:37;;;;;;;21.57;16.60;;;;;;;7.98;100.00;100538.52;1877005;76;26606;-71
2021/04/28 03:48:24;;;;;;;23.70;17.87;;;;;;;7.69;100.00;100538.22;1850065;77;33767;-71
2021/04/28 03:50:54;;;;;;;22.27;16.73;;;;;;;7.84;100.00;100544.30;1850598;77;26232;-71
2021/04/28 03:53:24;;;;;;;20.37;16.23;;;;;;;7.70;100.00;100544.58;1850669;77;26239;-71
2021/04/28 03:55:54;;;;;;;22.20;16.70;;;;;;;7.59;100.00;100540.12;1850541;77;26219;-71
2021/04/28 03:58:24;;;;;;;22.67;17.10;;;;;;;7.44;100.00;100544.23;1850737;77;26329;-71
2021/04/28 04:00:54;;;;;;;24.23;17.93;;;;;;;7.50;100.00;100539.82;1838853;76;934934;-71
2021/04/28 04:03:24;;;;;;;24.20;17.37;;;;;;;7.74;100.00;100544.31;1850788;76;26703;-71
2021/04/28 04:05:54;;;;;;;19.83;15.73;;;;;;;7.82;100.00;100549.84;1850820;77;26228;-71
2021/04/28 04:08:23;;;;;;;23.20;17.07;;;;;;;7.52;100.00;100547.85;1850769;77;26219;-71
2021/04/28 04:10:53;;;;;;;22.47;17.13;;;;;;;7.43;100.00;100552.24;1850447;76;26659;-72
2021/04/28 04:13:23;;;;;;;22.43;16.40;;;;;;;7.62;100.00;100551.45;1850635;77;26417;-71
2021/04/28 04:15:53;;;;;;;21.57;16.13;;;;;;;7.91;100.00;100544.05;1850660;77;26340;-71
2021/04/28 04:18:23;;;;;;;23.13;17.00;;;;;;;8.05;100.00;100541.83;1850285;77;26270;-71
2021/04/28 04:20:52;;;;;;;22.87;17.17;;;;;;;7.99;100.00;100538.80;1876196;76;26224;-71
2021/04/28 04:23:22;;;;;;;24.07;16.77;;;;;;;7.84;100.00;100545.69;1877213;76;26326;-72
2021/04/28 04:25:52;;;;;;;20.07;15.63;;;;;;;7.64;100.00;100547.05;1876988;76;26208;-72
2021/04/28 04:28:22;;;;;;;21.57;15.73;;;;;;;7.71;100.00;100547.05;1877239;76;26244;-72
2021/04/28 04:30:52;;;;;;;24.03;16.27;;;;;;;7.77;100.00;100543.20;1876999;76;26209;-72
2021/04/28 04:33:23;;;;;;;19.77;16.17;;;;;;;7.99;100.00;100542.13;1876969;76;26201;-72
2021/04/28 04:35:53;;;;;;;21.47;16.47;;;;;;;7.93;100.00;100542.66;1877044;76;26324;-71
2021/04/28 04:38:22;;;;;;;20.63;16.00;;;;;;;7.75;100.00;100548.71;1877198;76;26320;-71
2021/04/28 04:40:52;;;;;;;23.27;16.23;;;;;;;7.73;100.00;100549.55;1877033;76;26252;-71
2021/04/28 04:43:22;;;;;;;22.53;16.13;;;;;;;7.97;100.00;100536.85;1877110;76;26761;-71
2021/04/28 04:45:52;;;;;;;21.53;15.83;;;;;;;8.06;100.00;100543.50;1877043;76;26287;-71
2021/04/28 04:48:22;;;;;;;21.73;16.53;;;;;;;8.13;100.00;100534.36;1877015;76;26612;-71
2021/04/28 04:50:51;;;;;;;21.20;15.83;;;;;;;7.86;100.00;100539.34;1877164;76;26287;-71
2021/04/28 04:53:21;;;;;;;21.07;16.43;;;;;;;7.76;100.00;100542.09;1877098;76;26205;-71
2021/04/28 04:55:51;;;;;;;22.77;16.97;;;;;;;7.85;100.00;100543.20;1877045;76;26217;-71
2021/04/28 04:58:21;;;;;;;22.50;16.83;;;;;;;8.03;100.00;100530.78;1877119;76;26641;-71
2021/04/28 05:00:51;;;;;;;24.37;17.73;;;;;;;8.12;100.00;100537.42;1877172;76;26210;-71
2021/04/28 05:03:21;;;;;;;23.93;17.30;;;;;;;8.08;100.00;100532.17;1877215;75;26306;-72
2021/04/28 05:05:51;;;;;;;22.53;16.80;;;;;;;8.16;100.00;100535.77;1877093;76;26270;-71
2021/04/28 05:08:21;;;;;;;20.13;15.30;;;;;;;8.08;100.00;100542.69;1877115;76;26280;-71
2021/04/28 05:10:50;;;;;;;24.13;17.13;;;;;;;8.12;100.00;100536.05;1877100;76;26699;-71
2021/04/28 05:13:20;;;;;;;25.03;17.70;;;;;;;8.14;100.00;100539.34;1876962;76;26303;-72
2021/04/28 05:15:50;;;;;;;23.20;17.30;;;;;;;8.21;100.00;100544.06;1877066;76;26726;-71
2021/04/28 05:18:20;;;;;;;21.40;17.40;;;;;;;8.13;100.00;100538.51;1877329;76;26210;-72
2021/04/28 05:20:50;;;;;;;22.27;16.87;;;;;;;8.47;100.00;100531.87;1877189;76;26263;-71
2021/04/28 05:23:22;;;;;;;26.10;17.60;;;;;;;8.51;100.00;100530.78;1877188;76;26291;-72
2021/04/28 05:25:52;;;;;;;22.93;17.50;;;;;;;8.56;100.00;100525.22;1876980;76;26259;-72
2021/04/28 05:28:22;;;;;;;21.90;17.60;;;;;;;8.59;100.00;100525.52;1877031;76;26272;-72
2021/04/28 05:30:52;;;;;;;22.20;17.23;;;;;;;8.60;100.00;100528.53;1877119;76;26193;-71
2021/04/28 05:33:22;;;;;;;21.17;17.17;;;;;;;8.60;100.00;100524.96;1876999;76;26703;-72
2021/04/28 05:35:52;;;;;;;24.20;18.40;;;;;;;8.65;100.00;100523.53;1877090;76;26285;-72
2021/04/28 05:38:22;;;;;;;26.17;18.80;;;;;;;8.54;100.00;100523.30;1877101;76;26270;-72
2021/04/28 05:40:52;;;;;;;20.23;16.97;;;;;;;8.52;100.00;100524.95;1877068;76;26345;-72
2021/04/28 05:43:22;;;;;;;22.03;18.07;;;;;;;8.71;100.00;100517.44;1877133;76;26637;-72
2021/04/28 05:45:53;;;;;;;23.10;18.57;;;;;;;8.72;100.00;100520.49;1877095;76;26202;-72
2021/04/28 05:48:23;;;;;;;27.47;18.60;;;;;;;8.83;100.00;100520.72;1877068;76;26257;-72
2021/04/28 05:50:54;;;;;;;23.67;18.40;;;;;;;8.92;100.00;100519.87;1876973;76;26645;-72
2021/04/28 05:53:24;;;;;;;24.13;18.67;;;;;;;9.10;100.00;100519.25;1877066;76;26675;-72
2021/04/28 05:55:54;;;;;;;29.67;19.93;;;;;;;9.19;100.00;100519.49;1877036;76;26263;-72
2021/04/28 05:58:24;;;;;;;24.30;18.10;;;;;;;9.27;100.00;100512.52;1876991;76;26197;-71
2021/04/28 06:00:54;;;;;;;24.17;19.47;;;;;;;9.36;100.00;100518.58;1877162;76;26271;-73
2021/04/28 06:03:24;;;;;;;25.07;18.63;;;;;;;9.47;100.00;100513.23;1876994;75;26236;-74
2021/04/28 06:05:53;;;;;;;27.40;19.67;;;;;;;9.58;100.00;100522.34;1876977;76;26642;-73
2021/04/28 06:08:23;;;;;;;28.10;19.37;;;;;;;9.60;100.00;100522.86;1877206;76;26230;-74
2021/04/28 06:10:53;;;;;;;26.00;18.73;;;;;;;9.57;100.00;100523.45;1877120;76;26761;-75
2021/04/28 06:13:23;;;;;;;23.97;19.97;;;;;;;9.62;100.00;100517.88;1877071;76;26249;-74
2021/04/28 06:15:53;;;;;;;24.73;19.40;;;;;;;9.47;100.00;100517.39;1877061;76;26241;-75
2021/04/28 06:18:22;;;;;;;26.43;19.77;;;;;;;9.51;100.00;100505.16;1877098;76;26225;-75
2021/04/28 06:20:52;;;;;;;22.47;18.33;;;;;;;9.49;100.00;100500.48;1877276;76;26218;-75
2021/04/28 06:23:22;;;;;;;27.50;19.17;;;;;;;9.43;100.00;100501.06;1876956;76;26186;-74
2021/04/28 06:25:52;;;;;;;26.53;19.10;;;;;;;9.59;100.00;100504.00;1877124;76;26194;-74
2021/04/28 06:28:22;;;;;;;27.93;19.93;;;;;;;9.61;100.00;100500.95;1877110;76;26703;-75
2021/04/28 06:30:52;;;;;;;29.47;20.77;;;;;;;9.66;100.00;100500.09;1877090;76;26256;-75
2021/04/28 06:33:22;;;;;;;26.33;20.43;;;;;;;9.79;100.00;100495.29;1877124;76;26193;-75
2021/04/28 06:35:52;;;;;;;26.43;20.13;;;;;;;9.77;100.00;100495.56;1877325;76;26648;-75
2021/04/28 06:38:22;;;;;;;25.47;20.07;;;;;;;9.89;100.00;100504.90;1877195;76;26198;-74
2021/04/28 06:40:52;;;;;;;28.63;21.17;;;;;;;9.73;100.00;100508.91;1877086;76;26688;-75
2021/04/28 06:43:22;;;;;;;27.20;20.43;;;;;;;9.64;100.00;100503.70;1877049;76;26186;-74
2021/04/28 06:45:51;;;;;;;28.53;20.20;;;;;;;9.69;100.00;100506.44;1877025;76;26186;-75
2021/04/28 06:48:24;;;;;;;26.77;20.20;;;;;;;9.70;100.00;100506.72;1877128;76;26632;-75
2021/04/28 06:50:55;;;;;;;26.00;20.40;;;;;;;9.69;100.00;100503.11;1877166;76;26359;-75
2021/04/28 06:53:25;;;;;;;30.33;21.97;;;;;;;9.68;100.00;100505.61;1876962;76;26274;-78
2021/04/28 06:55:55;;;;;;;26.47;21.07;;;;;;;9.66;100.00;100512.02;1876914;76;26683;-75
2021/04/28 06:58:26;;;;;;;27.17;21.17;;;;;;;9.72;100.00;100512.23;1877182;76;26186;-75
2021/04/28 07:00:56;;;;;;;27.40;21.77;;;;;;;9.78;100.00;100505.55;1877029;76;26342;-75
2021/04/28 07:03:26;;;;;;;25.87;21.33;;;;;;;9.87;100.00;100496.05;1876981;75;26699;-75
2021/04/28 07:05:56;;;;;;;24.90;20.07;;;;;;;9.89;100.00;100489.64;1877084;76;26198;-76
2021/04/28 07:08:26;;;;;;;26.90;21.67;;;;;;;9.82;100.00;100485.83;1876951;76;26274;-76
2021/04/28 07:10:56;;;;;;;27.47;20.77;;;;;;;9.91;100.00;100484.09;1876993;76;26193;-76
2021/04/28 07:13:25;;;;;;;26.17;20.67;;;;;;;9.91;100.00;100488.25;1877105;76;26295;-76
2021/04/28 07:15:55;;;;;;;26.63;20.70;;;;;;;9.97;100.00;100490.41;1877241;76;26295;-77
2021/04/28 07:18:25;;;;;;;29.33;21.50;;;;;;;9.95;100.00;100491.27;1877183;76;26264;-77
2021/04/28 07:20:56;;;;;;;28.27;20.90;;;;;;;9.86;100.00;100481.35;1877262;76;26664;-77
2021/04/28 07:23:26;;;;;;;26.17;20.83;;;;;;;9.91;100.00;100488.25;1877182;76;26617;-77
2021/04/28 07:25:56;;;;;;;25.93;20.80;;;;;;;9.95;100.00;100487.11;1877046;76;26265;-75
2021/04/28 07:28:26;;;;;;;27.13;20.73;;;;;;;9.92;100.00;100490.48;1877033;76;26661;-77
2021/04/28 07:30:55;;;;;;;29.77;21.50;;;;;;;9.85;100.00;100485.23;1877128;76;26283;-77
2021/04/28 07:33:25;;;;;;;24.30;20.00;;;;;;;9.89;100.00;100492.42;1877499;76;26190;-76
2021/04/28 07:35:55;;;;;;;24.30;20.27;;;;;;;9.89;100.00;100486.87;1877138;76;26272;-75
2021/04/28 07:38:25;;;;;;;25.77;20.53;;;;;;;9.92;100.00;100486.31;1877152;76;26675;-75
2021/04/28 07:40:55;;;;;;;26.43;21.13;;;;;;;9.91;100.00;100488.25;1877222;76;26686;-75
2021/04/28 07:43:24;;;;;;;27.40;20.50;;;;;;;10.11;100.00;100488.63;1877169;76;26174;-75
2021/04/28 07:45:55;;;;;;;24.50;20.03;;;;;;;10.23;100.00;100486.88;1877149;76;26260;-75
2021/04/28 07:48:29;;;;;;;27.00;21.03;;;;;;;10.56;100.00;100474.91;1877177;76;26276;-75
2021/04/28 07:51:00;;;;;;;24.90;20.20;;;;;;;10.79;100.00;100468.52;1877159;76;26280;-75
2021/04/28 07:53:31;;;;;;;28.00;20.47;;;;;;;11.04;100.00;100472.92;1877167;76;26202;-75
2021/04/28 07:56:00;;;;;;;26.90;20.60;;;;;;;11.25;100.00;100474.31;1877185;76;26202;-76
2021/04/28 07:58:30;;;;;;;22.90;19.27;;;;;;;11.22;100.00;100470.75;1877129;76;26648;-75
2021/04/28 08:01:00;;;;;;;24.73;19.10;;;;;;;11.09;100.00;100468.69;1877123;76;26719;-76
2021/04/28 08:03:30;;;;;;;27.43;21.10;;;;;;;11.11;100.00;100472.02;1877067;75;26774;-75
2021/04/28 08:06:00;;;;;;;24.40;20.23;;;;;;;11.05;100.00;100471.80;1877094;76;26201;-75
2021/04/28 08:08:29;;;;;;;25.20;19.50;;;;;;;11.03;100.00;100469.07;1877264;76;26369;-75
2021/04/28 08:10:59;;;;;;;24.33;19.97;;;;;;;11.07;100.00;100454.84;1877188;76;26198;-75
2021/04/28 08:13:29;;;;;;;27.70;19.63;;;;;;;11.11;100.00;100439.22;1877091;76;26202;-77
2021/04/28 08:16:00;;;;;;;23.67;19.23;;;;;;;11.30;100.00;100426.14;1877103;75;26779;-75
2021/04/28 08:18:30;;;;;;;29.07;20.63;;;;;;;11.21;100.00;100421.02;1877148;76;26264;-75
2021/04/28 08:21:00;;;;;;;24.53;19.60;;;;;;;10.89;100.00;100421.73;1877171;76;26665;-75
2021/04/28 08:23:30;;;;;;;28.80;20.00;;;;;;;10.91;100.00;100425.05;1877236;76;26197;-75
2021/04/28 08:26:02;;;;;;;25.77;20.53;;;;;;;11.07;100.00;100422.33;1877044;76;26313;-75
2021/04/28 08:28:32;;;;;;;25.43;19.40;;;;;;;11.00;100.00;100428.79;1877204;76;26671;-75
2021/04/28 08:31:02;;;;;;;23.50;20.50;;;;;;;10.90;100.00;100433.94;1877104;76;26271;-74
2021/04/28 08:33:32;;;;;;;29.37;18.90;;;;;;;10.90;100.00;100438.67;1877235;76;26214;-74
2021/04/28 08:36:03;;;;;;;23.40;18.50;;;;;;;10.85;100.00;100452.06;1877321;76;26209;-75
2021/04/28 08:38:34;;;;;;;23.77;19.57;;;;;;;10.91;100.00;100463.36;1877164;76;26197;-75
2021/04/28 08:41:05;;;;;;;20.03;17.60;;;;;;;11.06;100.00;100465.13;1877185;76;26645;-74
2021/04/28 08:43:34;;;;;;;19.47;16.90;;;;;;;11.23;100.00;100457.67;1876994;76;26264;-75
2021/04/28 08:46:05;;;;;;;23.80;18.00;;;;;;;11.23;100.00;100457.67;1877201;76;26194;-74
2021/04/28 08:48:36;;;;;;;24.00;18.40;;;;;;;11.12;100.00;100452.83;1877060;76;26763;-75
2021/04/28 08:51:07;;;;;;;21.40;17.33;;;;;;;11.12;100.00;100455.61;1877046;76;26708;-75
2021/04/28 08:53:38;;;;;;;21.53;16.83;;;;;;;11.24;100.00;100453.78;1877232;76;26194;-75
2021/04/28 08:56:09;;;;;;;22.77;17.50;;;;;;;11.34;100.00;100455.00;1877119;76;26275;-75
2021/04/28 08:58:39;;;;;;;20.07;16.57;;;;;;;11.56;100.00;100456.63;1877239;76;26675;-75
2021/04/28 09:01:09;;;;;;;19.53;15.80;;;;;;;11.37;100.00;100466.94;1877230;76;26205;-74
2021/04/28 09:03:43;;;;;;;19.27;16.07;;;;;;;11.59;100.00;100472.73;1877143;75;26242;-75
2021/04/28 09:06:27;;;;;;;18.47;15.17;;;;;;;11.58;100.00;100462.73;1877187;76;26267;-75
2021/04/28 09:08:57;;;;;;;18.13;15.00;;;;;;;11.71;100.00;100457.80;1877118;76;26213;-74
2021/04/28 09:11:59;;;;;;;19.70;14.40;;;;;;;11.73;100.00;100454.16;1877119;76;26634;-75
2021/04/28 09:14:32;;;;;;;16.97;13.43;;;;;;;11.64;100.00;100459.28;1859811;76;26205;-74
2021/04/28 09:17:07;;;;;;;17.70;13.63;;;;;;;11.52;100.00;100465.88;1877278;75;26269;-75
2021/04/28 09:19:39;;;;;;;18.20;14.37;;;;;;;11.54;100.00;100464.46;1877180;76;26263;-74
2021/04/28 09:22:12;;;;;;;18.50;15.03;;;;;;;11.52;100.00;100463.92;1877343;76;26282;-75
2021/04/28 09:24:50;;;;;;;18.17;14.33;;;;;;;11.43;100.00;100472.11;1877034;76;26213;-75
2021/04/28 09:27:33;;;;;;;17.60;14.40;;;;;;;11.52;100.00;100470.87;1877054;76;26186;-75
2021/04/28 09:30:05;;;;;;;18.23;13.53;;;;;;;11.52;100.00;100473.66;1876975;76;26714;-75
2021/04/28 09:32:36;;;;;;;15.70;12.87;;;;;;;11.52;100.00;100486.17;1877179;76;26275;-75
2021/04/28 09:35:17;;;;;;;18.33;13.50;;;;;;;11.53;100.00;100485.05;1877148;76;26205;-74
2021/04/28 09:37:56;;;;;;;14.57;13.07;;;;;;;11.62;100.00;100499.94;1877210;76;26706;-75
2021/04/28 09:40:40;;;;;;;18.90;12.53;;;;;;;11.68;100.00;100503.48;1877183;76;26221;-74
2021/04/28 09:43:11;;;;;;;19.90;12.27;;;;;;;11.63;100.00;100515.52;1877245;76;26202;-75
2021/04/28 09:45:43;;;;;;;19.93;11.80;;;;;;;11.66;100.00;100520.47;1877147;76;26707;-75
2021/04/28 09:48:19;;;;;;;14.53;11.67;;;;;;;11.63;100.00;100523.86;1877116;76;26200;-75
2021/04/28 09:50:50;;;;;;;13.50;12.10;;;;;;;11.60;100.00;100532.78;1877269;76;26300;-75
2021/04/28 09:53:28;;;;;;;15.40;12.27;;;;;;;11.70;100.00;100531.81;1877243;76;26186;-75
2021/04/28 09:55:58;;;;;;;16.30;13.50;;;;;;;11.82;100.00;100527.48;1877146;76;26663;-76
2021/04/28 09:58:50;;;;;;;15.20;13.03;;;;;;;11.88;100.00;100514.33;1877212;76;26291;-74
2021/04/28 10:01:31;;;;;;;15.83;13.70;;;;;;;11.89;100.00;100509.59;1877154;76;26621;-74
2021/04/28 10:04:02;;;;;;;20.10;14.40;;;;;;;12.05;100.00;100505.43;1877144;75;26307;-74
2021/04/28 10:06:47;;;;;;;16.13;13.63;;;;;;;12.08;100.00;100498.69;1877231;76;26214;-75
2021/04/28 10:09:31;;;;;;;14.50;12.57;;;;;;;12.16;100.00;100502.73;1877111;76;26333;-74
2021/04/28 10:12:04;;;;;;;13.10;9.43;;;;;;;12.19;100.00;100500.75;1877084;76;26267;-74
2021/04/28 10:14:34;;;;;;;13.13;10.13;;;;;;;12.26;100.00;100505.34;1877140;76;26283;-74
2021/04/28 10:17:06;;;;;;;12.40;9.57;;;;;;;12.11;100.00;100494.45;1877022;75;26260;-74
2021/04/28 10:19:37;;;;;;;13.20;9.83;;;;;;;12.19;100.00;100497.37;1877103;76;26246;-74
2021/04/28 10:22:10;;;;;;;11.17;9.60;;;;;;;12.21;100.00;100490.95;1877184;76;26632;-74
2021/04/28 10:24:42;;;;;;;15.03;9.37;;;;;;;12.26;100.00;100483.90;1877082;76;26722;-74
2021/04/28 10:27:16;;;;;;;12.33;9.53;;;;;;;12.24;100.00;100481.97;1877132;76;26190;-74
2021/04/28 10:29:46;;;;;;;13.37;9.90;;;;;;;12.18;100.00;100479.03;1877288;76;26197;-74
2021/04/28 10:32:18;;;;;;;10.93;9.43;;;;;;;12.16;100.00;100479.06;1877206;76;26296;-74
2021/04/28 10:34:50;;;;;;;13.87;10.03;;;;;;;12.19;100.00;100475.69;1877090;76;26217;-74
2021/04/28 10:37:23;;;;;;;10.63;9.33;;;;;;;12.19;100.00;100484.84;1877071;76;26303;-74
2021/04/28 10:39:54;;;;;;;10.77;9.43;;;;;;;12.30;100.00;100487.73;1877187;76;26217;-74
2021/04/28 10:42:36;;;;;;;13.33;9.80;;;;;;;12.33;100.00;100486.27;1877137;76;26214;-74
2021/04/28 10:45:08;;;;;;;11.30;9.60;;;;;;;12.51;100.00;100491.53;1877207;76;26220;-74
2021/04/28 10:47:42;;;;;;;13.00;9.67;;;;;;;12.62;100.00;100482.66;1877188;76;26205;-75
2021/04/28 10:50:21;;;;;;;12.50;9.93;;;;;;;12.71;100.00;100480.81;1877156;76;26213;-74
2021/04/28 10:52:56;;;;;;;14.53;10.70;;;;;;;12.54;100.00;100483.94;1877063;76;26205;-75
2021/04/28 10:55:44;;;;;;;12.47;9.60;;;;;;;12.67;100.00;100480.34;1877397;76;26189;-74
2021/04/28 10:58:36;;;;;;;13.00;10.17;;;;;;;12.49;100.00;100482.11;1877040;76;26280;-74
2021/04/28 11:01:41;;;;;;;12.03;9.80;;;;;;;12.43;100.00;100472.17;1876990;76;26229;-75
2021/04/28 11:04:14;;;;;;;11.13;9.63;;;;;;;12.35;100.00;100469.27;1876968;75;26302;-75
2021/04/28 11:06:49;;;;;;;16.13;10.53;;;;;;;12.26;100.00;100469.98;1877086;76;26205;-75
2021/04/28 11:09:22;;;;;;;12.80;9.87;;;;;;;12.37;100.00;100468.38;1877346;76;26206;-74
2021/04/28 11:12:00;;;;;;;13.97;10.07;;;;;;;12.52;100.00;100458.36;1877085;76;26206;-74
2021/04/28 11:14:36;;;;;;;11.60;9.00;;;;;;;12.60;100.00;100459.87;1877092;76;26213;-75
2021/04/28 11:17:26;;;;;;;10.83;8.60;;;;;;;12.66;100.00;100458.62;1876986;76;26256;-75
2021/04/28 11:19:59;;;;;;;10.60;8.90;;;;;;;12.83;100.00;100458.03;1877190;76;26662;-74
2021/04/28 11:22:31;;;;;;;11.80;8.40;;;;;;;12.91;100.00;100460.66;1874061;76;26186;-74
2021/04/28 11:25:08;;;;;;;12.60;8.80;;;;;;;12.79;100.00;100457.80;1877061;76;26669;-74
2021/04/28 11:27:46;;;;;;;9.47;7.97;;;;;;;12.81;100.00;100451.92;1877150;76;26201;-74